createdAt,value
2019-02-05T00:02:35.697Z,8.36
2019-02-05T00:08:30.638Z,7.4
2019-02-05T00:14:25.656Z,8.57
2019-02-05T00:20:20.623Z,10.14
2019-02-05T00:26:15.671Z,8.46
2019-02-05T00:32:10.650Z,7.85
2019-02-05T00:38:05.662Z,5.63
2019-02-05T00:44:00.642Z,7.58
2019-02-05T00:49:55.662Z,7.9
2019-02-05T00:55:50.673Z,6.6
2019-02-05T01:01:45.710Z,9.05
2019-02-05T01:07:40.658Z,6.26
2019-02-05T01:13:35.649Z,10.58
2019-02-05T01:19:30.664Z,4.78
2019-02-05T01:25:25.693Z,4.44
2019-02-05T01:31:20.663Z,5.42
2019-02-05T01:37:15.702Z,3.7
2019-02-05T01:43:10.690Z,6.66
2019-02-05T01:49:05.715Z,3.02
2019-02-05T01:55:00.694Z,4.87
2019-02-05T02:00:55.709Z,5.58
2019-02-05T02:06:50.721Z,4.43
2019-02-05T02:12:45.707Z,3.09
2019-02-05T02:18:40.717Z,3.98
2019-02-05T02:24:35.739Z,4.89
2019-02-05T02:30:30.701Z,4.1
2019-02-05T02:36:25.707Z,5.73
2019-02-05T02:42:20.736Z,4.73
2019-02-05T02:48:15.706Z,5.26
2019-02-05T02:54:10.714Z,5.27
2019-02-05T03:00:05.751Z,4.5
2019-02-05T03:06:00.720Z,5.6
2019-02-05T03:11:55.729Z,5.56
2019-02-05T03:17:50.742Z,6.66
2019-02-05T03:23:45.735Z,5.76
2019-02-05T03:29:40.740Z,7.1
2019-02-05T03:35:35.765Z,5.13
2019-02-05T03:41:30.730Z,5.29
2019-02-05T03:47:25.732Z,7.48
2019-02-05T03:53:20.741Z,5.98
2019-02-05T03:59:15.821Z,5.01
2019-02-05T04:05:10.765Z,7.37
2019-02-05T04:11:05.775Z,7.22
2019-02-05T04:17:00.758Z,8.81
2019-02-05T04:22:55.795Z,6.79
2019-02-05T04:28:50.768Z,7.77
2019-02-05T04:34:45.765Z,7.97
2019-02-05T04:40:40.797Z,11.96
2019-02-05T04:46:35.827Z,9.5
2019-02-05T04:52:30.780Z,5.67
2019-02-05T04:58:25.778Z,7.39
2019-02-05T05:04:20.802Z,7.54
2019-02-05T05:10:15.815Z,9.36
2019-02-05T05:16:10.799Z,11.37
2019-02-05T05:22:05.814Z,11.82
2019-02-05T05:28:09.618Z,11
2019-02-05T05:33:55.846Z,8.67
2019-02-05T05:39:50.897Z,10.15
2019-02-05T05:45:45.812Z,11.08
2019-02-05T05:51:40.820Z,7.54
2019-02-05T05:57:35.853Z,9.12
2019-02-05T06:03:30.835Z,8.53
2019-02-05T06:09:25.892Z,11.15
2019-02-05T06:15:20.809Z,6.41
2019-02-05T06:21:15.824Z,9.58
2019-02-05T06:27:10.820Z,12.59
2019-02-05T06:33:05.823Z,11.43
2019-02-05T06:39:00.829Z,14.84
2019-02-05T06:44:55.858Z,13.94
2019-02-05T06:50:50.874Z,16.29
2019-02-05T06:56:45.862Z,9.28
2019-02-05T07:02:40.862Z,13.99
2019-02-05T07:08:35.842Z,9.4
2019-02-05T07:14:30.866Z,9.97
2019-02-05T07:20:25.935Z,13.95
2019-02-05T07:26:20.875Z,14.38
2019-02-05T07:32:15.880Z,12.57
2019-02-05T07:38:10.863Z,16.03
2019-02-05T07:44:05.876Z,13.8
2019-02-05T07:50:00.988Z,15.58
2019-02-05T07:55:55.886Z,14.52
2019-02-05T08:01:50.892Z,16.78
2019-02-05T08:07:45.911Z,19.22
2019-02-05T08:13:40.918Z,15.97
2019-02-05T08:19:35.955Z,17.11
2019-02-05T08:25:30.887Z,15.76
2019-02-05T08:31:25.934Z,16.04
2019-02-05T08:37:20.922Z,16.73
2019-02-05T08:43:15.911Z,20.89
2019-02-05T08:49:10.913Z,28.83
2019-02-05T08:55:05.915Z,36.05
2019-02-05T09:01:00.940Z,24.54
2019-02-05T09:06:55.958Z,37.08
2019-02-05T09:12:50.935Z,34.53
2019-02-05T09:18:45.927Z,30.75
2019-02-05T09:24:40.926Z,28.5
2019-02-05T09:30:35.939Z,20.34
2019-02-05T09:36:30.933Z,19.23
2019-02-05T09:42:25.938Z,21.53
2019-02-05T09:48:20.940Z,10.79
2019-02-05T09:54:15.980Z,8.29
2019-02-05T10:00:10.954Z,9.39
2019-02-05T10:06:05.955Z,12.09
2019-02-05T10:12:01.004Z,20.5
2019-02-05T10:17:56.017Z,11.01
2019-02-05T10:23:50.990Z,11.7
2019-02-05T10:29:56.301Z,8.42
2019-02-05T10:35:41.023Z,10.94
2019-02-05T10:41:35.974Z,7.07
2019-02-05T10:47:30.975Z,8.25
2019-02-05T10:53:25.965Z,8.31
2019-02-05T10:59:20.989Z,6.25
2019-02-05T11:05:16.023Z,6.94
2019-02-05T11:11:11.010Z,8.2
2019-02-05T11:17:06.013Z,10.12
2019-02-05T11:23:00.974Z,6.21
2019-02-05T11:28:56.006Z,3.72
2019-02-05T11:34:51.010Z,4.4
2019-02-05T11:40:45.998Z,6.03
2019-02-05T11:46:40.989Z,3.88
2019-02-05T11:52:36.008Z,5.45
2019-02-05T11:58:31.103Z,4.02
2019-02-05T12:04:26.015Z,4.45
2019-02-05T12:10:21.006Z,4.22
2019-02-05T12:16:16.023Z,5.74
2019-02-05T12:22:11.028Z,7.49
2019-02-05T12:28:06.024Z,4.73
2019-02-05T12:34:01.055Z,5.22
2019-02-05T12:39:56.045Z,5.78
2019-02-05T12:45:51.042Z,3.79
2019-02-05T12:51:46.107Z,6.67
2019-02-05T12:57:41.053Z,7.42
2019-02-05T13:03:36.045Z,5.14
2019-02-05T13:09:31.061Z,6.07
2019-02-05T13:15:26.071Z,6.26
2019-02-05T13:21:21.044Z,5
2019-02-05T13:27:16.091Z,6.25
2019-02-05T13:33:11.111Z,4.73
2019-02-05T13:39:06.084Z,3.9
2019-02-05T13:45:01.098Z,28.12
2019-02-05T13:50:56.107Z,6.66
2019-02-05T13:56:51.084Z,3.02
2019-02-05T14:02:46.092Z,5.5
2019-02-05T14:08:41.080Z,6.47
2019-02-05T14:14:36.090Z,6.3
2019-02-05T14:20:31.122Z,4.67
2019-02-05T14:26:26.095Z,5.73
2019-02-05T14:32:21.101Z,4.31
2019-02-05T14:38:16.144Z,6.11
2019-02-05T14:44:11.161Z,4.24
2019-02-05T14:50:06.136Z,4.2
2019-02-05T14:56:01.125Z,6.79
2019-02-05T15:01:56.170Z,2.63
2019-02-05T15:07:51.184Z,8.06
2019-02-05T15:13:46.134Z,3.84
2019-02-05T15:19:41.131Z,2.33
2019-02-05T15:25:36.158Z,3.95
2019-02-05T15:31:31.129Z,3.53
2019-02-05T15:37:26.133Z,4.12
2019-02-05T15:43:21.168Z,5.06
2019-02-05T15:49:16.164Z,4.58
2019-02-05T15:55:11.154Z,6.34
2019-02-05T16:01:06.205Z,3.5
2019-02-05T16:07:01.179Z,6.01
2019-02-05T16:12:56.220Z,5.54
2019-02-05T16:18:53.240Z,8.58
2019-02-05T16:24:46.181Z,9.18
2019-02-05T16:30:41.190Z,8.61
2019-02-05T16:36:36.202Z,7.64
2019-02-05T16:42:31.215Z,6.25
2019-02-05T16:48:26.182Z,6.42
2019-02-05T16:54:21.308Z,14.23
2019-02-05T17:00:16.224Z,11.25
2019-02-05T17:06:11.208Z,18.07
2019-02-05T17:12:06.249Z,10.65
2019-02-05T17:18:01.219Z,4.12
2019-02-05T17:23:56.227Z,8.92
2019-02-05T17:29:51.219Z,9.37
2019-02-05T17:35:46.252Z,5.1
2019-02-05T17:41:41.229Z,19.7
2019-02-05T17:47:36.245Z,5.99
2019-02-05T17:53:31.239Z,8.78
2019-02-05T17:59:26.239Z,14.25
2019-02-05T18:05:21.263Z,17.71
2019-02-05T18:11:16.253Z,10.28
2019-02-05T18:17:11.269Z,19.05
2019-02-05T18:23:06.255Z,20.35
2019-02-05T18:29:01.257Z,22.8
2019-02-05T18:34:56.277Z,21.76
2019-02-05T18:40:51.310Z,24.48
2019-02-05T18:46:46.296Z,26.98
2019-02-05T18:52:41.267Z,21.13
2019-02-05T18:58:36.265Z,25.6
2019-02-05T19:04:31.280Z,22.97
2019-02-05T19:10:26.308Z,17.9
2019-02-05T19:16:21.297Z,17.64
2019-02-05T19:22:16.341Z,19.05
2019-02-05T19:28:11.275Z,27.68
2019-02-05T19:34:06.283Z,19.96
2019-02-05T19:40:01.309Z,30.3
2019-02-05T19:45:56.318Z,35.88
2019-02-05T19:51:51.315Z,23.96
2019-02-05T19:57:46.316Z,32.55
2019-02-05T20:03:41.316Z,29.46
2019-02-05T20:09:36.321Z,67.27
2019-02-05T20:15:31.374Z,25.05
2019-02-05T20:21:26.299Z,20.21
2019-02-05T20:27:21.393Z,22.15
2019-02-05T20:33:16.336Z,26.17
2019-02-05T20:39:11.422Z,25.51
2019-02-05T20:45:06.382Z,24.59
2019-02-05T20:51:01.433Z,18.38
2019-02-05T20:56:56.333Z,59.3
2019-02-05T21:02:51.323Z,24.64
2019-02-05T21:08:46.356Z,19.87
2019-02-05T21:14:41.322Z,20.92
2019-02-05T21:20:36.341Z,28.55
2019-02-05T21:26:31.340Z,30.65
2019-02-05T21:32:26.388Z,22.86
2019-02-05T21:38:21.386Z,20.37
2019-02-05T21:44:16.417Z,20.94
2019-02-05T21:50:11.361Z,25.26
2019-02-05T21:56:06.372Z,21.5
2019-02-05T22:02:01.413Z,26.47
2019-02-05T22:07:56.363Z,27.63
2019-02-05T22:13:51.416Z,30.12
2019-02-05T22:19:46.390Z,25.37
2019-02-05T22:25:41.418Z,28.19
2019-02-05T22:31:36.420Z,25.73
2019-02-05T22:37:31.417Z,25.66
2019-02-05T22:43:26.407Z,18.55
2019-02-05T22:49:21.395Z,23.58
2019-02-05T22:55:16.440Z,16.79
2019-02-05T23:01:11.405Z,11.59
2019-02-05T23:07:06.417Z,9.09
2019-02-05T23:13:01.461Z,10.56
2019-02-05T23:18:56.413Z,8.23
2019-02-05T23:24:51.476Z,11.43
2019-02-05T23:30:46.435Z,7.21
2019-02-05T23:36:41.421Z,10.64
2019-02-05T23:42:36.454Z,11.23
2019-02-05T23:48:31.462Z,8.61
2019-02-05T23:54:26.459Z,5.16
